Lindale, Georgia
Current Conditions -  °F | °C
As of 3:53 AM on Thursday 23 Oct 2014 (Local Time) from KRMG Reporting Station
Clear Clear  
Wind Chill: 41°   Ceiling: Unl
Heat Index: 44°   Visibility: 10mi
Dew Point: 40°   Wind: 6mph
Humidity: 85%   Direction: 340°NNW
Pressure: 30.13"   Gusts: NA
Location:  34.19°N, 85.17°W
Report Text: KRMG 230753Z AUTO 34005KT 10SM CLR 07/04 A3013 RMK AO2 SLP198 T00670044
Loading
Personal Weather Stations






























Interactive Weather Map
Tropical Storm Tracking
New forecast layout! Learn more

10-Day Weather Forecast

Advertisements
Track Severe Weather on mobile